Time;durP1;ratioP1;P1;durP2;ratioP2;P2;SDS_P1;SDS_P2;PMS_P1;PMS_P2;Temp;Humidity;BMP_temperature;BMP_pressure;BME280_temperature;BME280_humidity;BME280_pressure;Samples;Min_cycle;Max_cycle;Signal;HPM_P1;HPM_P2
2021/04/17 00:01:48;;;;;;;12.55;6.67;;;;;;;6.13;62.35;96630.10;1813349;76;21115;-52
2021/04/17 00:04:16;;;;;;;10.70;6.50;;;;;;;6.10;62.99;96625.92;1840183;76;22547;-52
2021/04/17 00:06:46;;;;;;;12.33;6.20;;;;;;;6.18;63.59;96624.25;1829591;76;21142;-51
2021/04/17 00:09:18;;;;;;;;;;;;;;;6.27;63.25;96625.06;1833117;76;21122;-53
2021/04/17 00:11:48;;;;;;;9.65;5.30;;;;;;;6.34;63.18;96619.95;1838784;76;20602;-52
2021/04/17 00:14:23;;;;;;;8.13;4.85;;;;;;;6.41;63.14;96625.17;1844173;76;21122;-52
2021/04/17 00:16:53;;;;;;;7.30;4.60;;;;;;;6.47;62.96;96631.73;1830926;76;21437;-52
2021/04/17 00:19:21;;;;;;;5.43;4.00;;;;;;;6.50;62.51;96627.70;1846981;76;21154;-53
2021/04/17 00:21:49;;;;;;;6.12;4.50;;;;;;;6.49;62.32;96627.78;1821472;76;21087;-52
2021/04/17 00:24:17;;;;;;;5.05;3.87;;;;;;;6.48;62.62;96630.83;1843067;76;21043;-51
2021/04/17 00:26:46;;;;;;;5.70;3.90;;;;;;;6.49;62.30;96627.78;1845657;76;21159;-51
2021/04/17 00:29:13;;;;;;;4.95;3.80;;;;;;;6.42;62.32;96624.70;1839117;76;22325;-51
2021/04/17 00:31:42;;;;;;;4.55;3.67;;;;;;;6.34;62.37;96622.52;1830448;76;21130;-51
2021/04/17 00:34:10;;;;;;;5.40;3.50;;;;;;;6.33;62.51;96622.61;1823506;76;21052;-52
2021/04/17 00:36:40;;;;;;;4.83;3.42;;;;;;;6.37;62.58;96624.95;1842460;76;21134;-52
2021/04/17 00:39:08;;;;;;;4.15;3.25;;;;;;;6.43;62.59;96619.47;1830036;76;21543;-52
2021/04/17 00:41:37;;;;;;;4.28;3.40;;;;;;;6.51;62.65;96620.33;1836907;76;21573;-51
2021/04/17 00:44:06;;;;;;;4.95;3.83;;;;;;;6.55;62.32;96621.84;1835862;76;21571;-51
2021/04/17 00:46:33;;;;;;;;;;;;;;;6.54;61.84;96623.21;1830174;76;21123;-52
2021/04/17 00:49:04;;;;;;;3.58;3.27;;;;;;;6.48;61.83;96628.25;1844670;76;20269;-52
2021/04/17 00:51:32;;;;;;;5.15;3.98;;;;;;;6.45;62.10;96624.55;1826619;76;21172;-54
2021/04/17 00:54:00;;;;;;;5.45;3.85;;;;;;;6.42;61.96;96629.86;1839447;76;22730;-52
2021/04/17 00:56:28;;;;;;;4.15;3.58;;;;;;;6.40;62.25;96635.56;1819210;76;21068;-52
2021/04/17 00:58:57;;;;;;;6.55;4.05;;;;;;;6.41;62.39;96634.63;1833588;76;21060;-53
2021/04/17 01:01:25;;;;;;;6.00;3.87;;;;;;;6.47;62.37;96640.75;1835301;76;21159;-52
2021/04/17 01:04:10;;;;;;;5.67;3.70;;;;;;;6.54;62.34;96641.25;1828767;76;21221;-52
2021/04/17 01:06:54;;;;;;;4.25;3.47;;;;;;;6.58;62.27;96639.73;1827021;76;21197;-52
2021/04/17 01:09:28;;;;;;;7.15;4.25;;;;;;;6.61;62.18;96641.29;1844770;76;21094;-52
2021/04/17 01:12:08;;;;;;;7.08;4.45;;;;;;;6.63;61.91;96638.20;1798661;78;21059;-52
2021/04/17 01:14:38;;;;;;;7.42;5.58;;;;;;;6.65;61.96;96638.11;1835274;76;21155;-52
2021/04/17 01:17:10;;;;;;;8.83;6.03;;;;;;;6.66;61.79;96635.89;1850341;76;21499;-52
2021/04/17 01:19:46;;;;;;;14.98;8.63;;;;;;;6.69;61.62;96635.73;1829124;76;21198;-52
2021/04/17 01:22:17;;;;;;;13.15;7.97;;;;;;;6.67;61.62;96640.14;1807019;77;21146;-53
2021/04/17 01:25:11;;;;;;;9.30;5.80;;;;;;;6.66;62.01;96641.91;1841126;76;21071;-52
2021/04/17 01:27:39;;;;;;;10.80;7.03;;;;;;;6.65;62.07;96637.65;1850846;76;21055;-52
2021/04/17 01:30:11;;;;;;;13.53;8.70;;;;;;;6.64;62.43;96637.27;1841319;76;21104;-53
2021/04/17 01:32:42;;;;;;;10.82;6.97;;;;;;;6.63;62.49;96639.48;1850610;76;22175;-51
2021/04/17 01:35:14;;;;;;;10.55;6.25;;;;;;;6.65;62.47;96640.69;1851960;76;21091;-52
2021/04/17 01:38:22;;;;;;;7.87;5.47;;;;;;;6.67;62.02;96635.81;1852850;76;21134;-52
2021/04/17 01:40:55;;;;;;;16.07;7.45;;;;;;;6.62;61.78;96639.09;1848742;76;21089;-52
2021/04/17 01:43:25;;;;;;;8.43;6.15;;;;;;;6.57;62.25;96634.66;1842337;76;21105;-52
2021/04/17 01:45:53;;;;;;;8.70;5.95;;;;;;;6.54;62.29;96637.39;1837425;76;21397;-52
2021/04/17 01:48:21;;;;;;;9.53;6.10;;;;;;;6.40;62.76;96643.30;1846581;76;21158;-53
2021/04/17 01:50:49;;;;;;;8.30;5.70;;;;;;;6.28;63.35;96637.02;1852993;76;21078;-53
2021/04/17 01:53:21;;;;;;;7.97;5.42;;;;;;;6.30;63.75;96640.80;1853831;76;21177;-53
2021/04/17 01:55:50;;;;;;;7.42;5.78;;;;;;;6.38;64.11;96638.66;1855411;76;21791;-51
2021/04/17 01:58:22;;;;;;;6.75;5.17;;;;;;;6.44;64.19;96640.91;1840695;76;21369;-51
2021/04/17 02:00:53;;;;;;;7.70;5.12;;;;;;;6.48;64.14;96641.14;1846484;76;21760;-52
2021/04/17 02:03:22;;;;;;;7.75;5.20;;;;;;;6.53;64.16;96641.72;1853333;76;21554;-52
2021/04/17 02:05:52;;;;;;;7.70;5.45;;;;;;;6.58;64.13;96645.34;1836631;76;21539;-51
2021/04/17 02:08:20;;;;;;;6.25;5.03;;;;;;;6.63;63.79;96642.06;1852724;75;21051;-52
2021/04/17 02:10:51;;;;;;;7.58;5.33;;;;;;;6.64;63.62;96646.28;1837190;76;21392;-52
2021/04/17 02:13:19;;;;;;;;;;;;;;;6.59;63.28;96647.81;1837914;76;21201;-51
2021/04/17 02:15:47;;;;;;;7.40;4.92;;;;;;;6.52;63.57;96644.38;1845289;76;20204;-53
2021/04/17 02:18:33;;;;;;;7.53;6.07;;;;;;;6.51;63.71;96649.15;1855625;76;21099;-52
2021/04/17 02:21:07;;;;;;;8.50;6.15;;;;;;;6.50;63.48;96640.59;1829561;76;21623;-51
2021/04/17 02:23:36;;;;;;;9.85;6.50;;;;;;;6.50;63.26;96647.50;1833633;76;21344;-53
2021/04/17 02:26:04;;;;;;;10.82;7.35;;;;;;;6.51;63.26;96647.39;1847277;76;21103;-51
2021/04/17 02:28:32;;;;;;;9.58;6.45;;;;;;;6.52;63.20;96650.83;1842472;76;21130;-51
2021/04/17 02:31:02;;;;;;;10.85;7.00;;;;;;;6.48;63.09;96645.44;1823083;78;21145;-51
2021/04/17 02:33:32;;;;;;;11.18;6.72;;;;;;;6.45;63.36;96645.98;1850407;76;21186;-52
2021/04/17 02:36:04;;;;;;;9.68;5.80;;;;;;;6.44;63.79;96650.75;1833683;76;21628;-55
2021/04/17 02:38:32;;;;;;;9.83;6.50;;;;;;;6.47;63.21;96651.06;1847102;76;21090;-54
2021/04/17 02:41:01;;;;;;;9.35;6.85;;;;;;;6.40;63.35;96645.88;1834679;76;28179;-51
2021/04/17 02:43:29;;;;;;;8.80;6.22;;;;;;;6.39;63.70;96646.30;1843222;76;21174;-51
2021/04/17 02:45:57;;;;;;;10.93;6.87;;;;;;;6.43;63.74;96645.25;1840796;76;21034;-51
2021/04/17 02:48:25;;;;;;;7.60;5.87;;;;;;;6.43;63.54;96646.53;1840995;76;22678;-52
2021/04/17 02:50:55;;;;;;;10.20;6.05;;;;;;;6.34;63.75;96641.85;1836537;76;21533;-52
2021/04/17 02:53:22;;;;;;;7.08;4.85;;;;;;;6.30;63.90;96648.09;1846106;76;21128;-52
2021/04/17 02:55:54;;;;;;;8.88;5.08;;;;;;;6.24;63.13;96641.50;1837312;76;21123;-53
2021/04/17 02:58:24;;;;;;;9.25;4.85;;;;;;;6.12;63.24;96647.74;1847797;76;21564;-52
2021/04/17 03:00:54;;;;;;;7.22;5.10;;;;;;;6.07;63.85;96655.27;1836098;76;21883;-52
2021/04/17 03:03:23;;;;;;;6.95;5.45;;;;;;;6.12;63.99;96648.59;1839554;76;21123;-51
2021/04/17 03:05:51;;;;;;;7.80;5.62;;;;;;;6.14;64.00;96653.20;1828607;76;21135;-52
2021/04/17 03:08:19;;;;;;;24.90;6.13;;;;;;;6.08;63.72;96652.23;1835808;76;21043;-52
2021/04/17 03:10:47;;;;;;;22.27;5.90;;;;;;;6.03;63.94;96653.75;1830429;76;21114;-51
2021/04/17 03:13:16;;;;;;;11.50;5.37;;;;;;;6.01;63.10;96651.72;1848123;76;22279;-54
2021/04/17 03:15:45;;;;;;;10.72;5.10;;;;;;;6.00;62.98;96652.64;1837686;76;21145;-52
2021/04/17 03:18:12;;;;;;;;;;;;;;;5.93;62.84;96646.09;1831313;76;21575;-52
2021/04/17 03:20:41;;;;;;;12.53;5.33;;;;;;;5.86;62.96;96648.61;1842661;76;20645;-53
2021/04/17 03:23:11;;;;;;;21.52;10.70;;;;;;;5.82;63.32;96653.52;1829103;76;21169;-54
2021/04/17 03:25:41;;;;;;;28.17;10.32;;;;;;;5.77;63.35;96655.03;1851606;75;22125;-53
2021/04/17 03:28:11;;;;;;;21.55;8.18;;;;;;;5.85;63.56;96658.52;1838139;76;21097;-51
2021/04/17 03:30:40;;;;;;;18.92;5.90;;;;;;;5.93;63.35;96665.87;1832899;76;26724;-53
2021/04/17 03:33:08;;;;;;;19.20;7.40;;;;;;;5.95;63.20;96671.77;1835194;76;21591;-51
2021/04/17 03:35:36;;;;;;;8.83;5.10;;;;;;;5.98;63.29;96669.08;1842835;76;21111;-52
2021/04/17 03:38:03;;;;;;;19.35;8.10;;;;;;;5.99;63.16;96665.13;1849775;76;21287;-53
2021/04/17 03:40:35;;;;;;;7.50;4.40;;;;;;;6.01;63.18;96668.45;1842677;76;21113;-52
2021/04/17 03:43:04;;;;;;;6.45;4.05;;;;;;;5.95;62.83;96673.88;1834162;76;21123;-51
2021/04/17 03:45:34;;;;;;;6.47;3.95;;;;;;;5.73;63.15;96672.03;1839017;76;21116;-51
2021/04/17 03:48:03;;;;;;;14.95;10.35;;;;;;;5.56;63.77;96681.41;1800408;76;21145;-56
2021/04/17 03:50:31;;;;;;;29.23;19.40;;;;;;;5.59;64.38;96685.56;1841255;75;22293;-55
2021/04/17 03:52:59;;;;;;;40.45;14.63;;;;;;;5.71;64.49;96683.22;1850733;76;21107;-52
2021/04/17 03:55:27;;;;;;;4.90;4.35;;;;;;;5.73;63.53;96678.47;1832914;76;21040;-54
2021/04/17 03:57:55;;;;;;;10.40;4.05;;;;;;;5.55;63.62;96685.35;1832956;76;21115;-51
2021/04/17 04:00:23;;;;;;;10.80;4.70;;;;;;;5.49;64.19;96685.17;1829488;76;21142;-54
2021/04/17 04:02:51;;;;;;;18.67;5.30;;;;;;;5.51;64.43;96688.53;1832505;76;21329;-51
2021/04/17 04:05:19;;;;;;;17.45;4.70;;;;;;;5.48;64.59;96690.79;1834727;76;21067;-51
2021/04/17 04:07:49;;;;;;;;;;;;;;;5.56;64.66;96687.00;1847260;76;21162;-51
2021/04/17 04:10:18;;;;;;;;;;;;;;;5.71;64.71;96680.65;1820914;76;20238;-52
2021/04/17 04:12:46;;;;;;;14.33;5.47;;;;;;;5.79;64.29;96684.14;1853393;75;20255;-51
2021/04/17 04:15:15;;;;;;;19.42;5.55;;;;;;;5.84;64.34;96680.88;1848224;76;21407;-51
2021/04/17 04:17:45;;;;;;;14.98;5.97;;;;;;;5.97;64.32;96686.71;1853712;76;21635;-51
2021/04/17 04:20:14;;;;;;;13.03;5.87;;;;;;;6.11;64.08;96680.41;1854185;76;21535;-51
2021/04/17 04:22:41;;;;;;;15.43;5.30;;;;;;;6.24;63.69;96682.73;1857363;76;21142;-51
2021/04/17 04:25:11;;;;;;;7.15;4.70;;;;;;;6.38;63.38;96682.47;1845435;76;21604;-51
2021/04/17 04:27:39;;;;;;;22.13;5.65;;;;;;;6.50;62.75;96683.13;1851995;76;22558;-51
2021/04/17 04:30:09;;;;;;;16.80;5.62;;;;;;;6.58;62.30;96686.13;1851340;76;21047;-52
2021/04/17 04:32:38;;;;;;;20.85;5.25;;;;;;;6.67;62.56;96688.67;1841556;76;21498;-53
2021/04/17 04:35:08;;;;;;;15.15;5.78;;;;;;;6.69;62.48;96688.59;1838233;76;21047;-51
2021/04/17 04:37:36;;;;;;;16.48;6.55;;;;;;;6.75;62.50;96692.14;1857181;76;21051;-51
2021/04/17 04:40:06;;;;;;;22.30;7.58;;;;;;;6.81;62.51;96691.34;1844679;76;22304;-53
2021/04/17 04:42:34;;;;;;;32.05;8.58;;;;;;;6.88;61.87;96695.72;1845483;76;21539;-52
2021/04/17 04:45:04;;;;;;;21.73;7.85;;;;;;;6.94;61.57;96694.10;1865111;76;21559;-53
2021/04/17 04:47:34;;;;;;;14.40;6.28;;;;;;;7.02;61.23;96698.00;1858564;76;21130;-52
2021/04/17 04:50:04;;;;;;;;;;;;;;;7.05;60.82;96699.95;1828406;76;21091;-52
2021/04/17 04:52:34;;;;;;;18.45;6.90;;;;;;;7.06;60.94;96704.67;1856562;76;21280;-52
2021/04/17 04:55:02;;;;;;;20.68;6.53;;;;;;;7.08;60.97;96702.37;1846131;76;21590;-52
2021/04/17 04:57:30;;;;;;;13.88;4.72;;;;;;;7.10;60.85;96706.98;1819557;76;21408;-52
2021/04/17 04:59:58;;;;;;;9.10;3.80;;;;;;;7.16;60.06;96709.70;1858587;76;21213;-52
2021/04/17 05:02:26;;;;;;;7.10;3.63;;;;;;;7.22;59.50;96704.64;1852184;76;21035;-53
2021/04/17 05:04:54;;;;;;;7.33;3.77;;;;;;;7.28;59.21;96706.42;1854876;76;21354;-52
2021/04/17 05:07:21;;;;;;;5.45;3.42;;;;;;;7.34;58.71;96704.80;1858790;76;21603;-52
2021/04/17 05:09:50;;;;;;;4.55;3.20;;;;;;;7.41;58.28;96713.03;1835516;76;21103;-52
2021/04/17 05:12:17;;;;;;;3.20;2.73;;;;;;;7.43;58.24;96716.35;1853608;76;21035;-52
2021/04/17 05:14:47;;;;;;;3.58;2.87;;;;;;;7.47;57.71;96714.45;1843038;76;21115;-53
2021/04/17 05:17:18;;;;;;;3.47;3.17;;;;;;;7.50;57.78;96720.28;1846563;76;21256;-52
2021/04/17 05:19:47;;;;;;;3.60;3.00;;;;;;;7.55;57.70;96718.27;1840602;76;21113;-52
2021/04/17 05:22:14;;;;;;;7.37;2.67;;;;;;;7.59;57.58;96723.26;1837663;76;21195;-53
2021/04/17 05:24:44;;;;;;;3.33;2.62;;;;;;;7.63;57.19;96723.44;1840378;76;21210;-54
2021/04/17 05:27:12;;;;;;;6.87;2.85;;;;;;;7.60;56.80;96722.32;1841679;76;21510;-52
2021/04/17 05:29:40;;;;;;;3.02;2.50;;;;;;;7.57;57.08;96729.80;1837524;76;21367;-51
2021/04/17 05:32:08;;;;;;;3.02;2.72;;;;;;;7.57;57.18;96730.27;1832695;76;21099;-52
2021/04/17 05:34:38;;;;;;;4.60;2.58;;;;;;;7.57;56.85;96725.10;1846951;76;21043;-53
2021/04/17 05:37:07;;;;;;;3.95;2.90;;;;;;;7.61;56.71;96731.27;1840398;76;21221;-52
2021/04/17 05:39:36;;;;;;;5.35;2.90;;;;;;;7.63;56.75;96727.31;1829278;76;21098;-52
2021/04/17 05:42:06;;;;;;;5.37;2.80;;;;;;;7.66;56.71;96731.02;1835638;76;21350;-53
2021/04/17 05:44:35;;;;;;;3.90;3.27;;;;;;;7.70;56.71;96729.95;1806210;76;21134;-53
2021/04/17 05:47:04;;;;;;;3.08;2.65;;;;;;;7.75;56.53;96727.93;1853684;76;21134;-52
2021/04/17 05:49:36;;;;;;;3.00;2.55;;;;;;;7.80;56.45;96732.37;1835938;76;21625;-52
2021/04/17 05:52:06;;;;;;;2.37;2.17;;;;;;;7.84;56.30;96736.42;1839295;76;21559;-53
2021/04/17 05:54:33;;;;;;;2.65;2.27;;;;;;;7.86;55.81;96738.92;1814648;76;21193;-52
2021/04/17 05:57:01;;;;;;;3.30;2.37;;;;;;;7.89;56.01;96738.31;1835889;76;21618;-52
2021/04/17 05:59:29;;;;;;;2.50;2.30;;;;;;;7.98;55.87;96745.16;1829668;76;21100;-52
2021/04/17 06:01:58;;;;;;;3.58;2.62;;;;;;;8.00;55.61;96736.86;1840751;76;21132;-53
2021/04/17 06:04:26;;;;;;;2.80;2.60;;;;;;;8.02;55.43;96735.00;1830507;76;21055;-58
2021/04/17 06:06:54;;;;;;;2.40;2.20;;;;;;;8.04;55.36;96739.62;1842571;76;21318;-52
2021/04/17 06:09:22;;;;;;;2.90;2.67;;;;;;;8.06;55.24;96742.97;1844132;76;21158;-52
2021/04/17 06:11:51;;;;;;;2.55;2.35;;;;;;;8.10;55.19;96740.09;1843019;76;21098;-52
2021/04/17 06:14:19;;;;;;;2.55;2.35;;;;;;;8.15;55.26;96739.01;1836752;76;21070;-53
2021/04/17 06:16:47;;;;;;;3.30;2.42;;;;;;;8.20;54.98;96734.39;1841303;76;27361;-53
2021/04/17 06:19:15;;;;;;;2.93;2.03;;;;;;;8.25;54.36;96738.36;1854114;76;21474;-55
2021/04/17 06:21:43;;;;;;;3.17;2.10;;;;;;;8.25;54.36;96738.36;1843588;76;21529;-53
2021/04/17 06:24:12;;;;;;;2.50;2.30;;;;;;;8.31;54.55;96742.35;1838655;76;21583;-53
2021/04/17 06:26:40;;;;;;;5.33;2.65;;;;;;;8.37;54.21;96742.44;1843921;76;21064;-52
2021/04/17 06:29:08;;;;;;;2.67;2.42;;;;;;;8.40;54.29;96742.27;1857601;76;21031;-53
2021/04/17 06:31:36;;;;;;;2.33;2.12;;;;;;;8.43;54.33;96744.70;1853427;76;21243;-52
2021/04/17 06:34:04;;;;;;;5.33;2.30;;;;;;;8.42;54.37;96744.29;1845383;76;21119;-51
2021/04/17 06:36:34;;;;;;;2.85;2.50;;;;;;;8.44;54.38;96739.44;1845423;76;21110;-52
2021/04/17 06:39:05;;;;;;;;;;;;;;;8.40;54.49;96737.09;1839149;76;21146;-53
2021/04/17 06:41:35;;;;;;;4.85;3.05;;;;;;;8.39;54.65;96734.98;1852783;76;20273;-52
2021/04/17 06:44:05;;;;;;;5.12;3.67;;;;;;;8.42;54.54;96737.82;1837681;76;21397;-53
2021/04/17 06:46:34;;;;;;;4.87;3.00;;;;;;;8.41;54.50;96741.34;1845371;76;21119;-53
2021/04/17 06:49:03;;;;;;;3.80;2.60;;;;;;;8.42;54.46;96745.14;1850720;76;21579;-52
2021/04/17 06:51:31;;;;;;;2.70;2.50;;;;;;;8.48;54.26;96743.96;1846810;76;21226;-53
2021/04/17 06:54:00;;;;;;;;;;;;;;;8.52;54.20;96745.45;1839458;76;21037;-57
2021/04/17 06:56:27;;;;;;;3.42;2.72;;;;;;;8.62;54.21;96745.73;1831664;76;21530;-53
2021/04/17 06:58:55;;;;;;;5.42;2.92;;;;;;;8.69;54.36;96743.14;1844657;76;21524;-54
2021/04/17 07:01:23;;;;;;;3.33;2.80;;;;;;;8.77;54.23;96743.51;1848604;76;21178;-55
2021/04/17 07:03:53;;;;;;;3.02;2.50;;;;;;;8.88;53.74;96739.42;1827900;76;21110;-53
2021/04/17 07:06:23;;;;;;;2.55;2.35;;;;;;;8.96;53.75;96744.52;1834413;76;21170;-54
2021/04/17 07:08:52;;;;;;;2.83;2.37;;;;;;;9.05;53.43;96746.17;1839324;76;21150;-53
2021/04/17 07:11:20;;;;;;;2.92;2.60;;;;;;;9.13;53.21;96743.47;1849457;76;21479;-52
2021/04/17 07:14:08;;;;;;;4.12;3.05;;;;;;;9.24;53.22;96743.25;1844154;76;21076;-53
2021/04/17 07:17:01;;;;;;;4.03;2.90;;;;;;;9.35;52.94;96742.12;1844437;76;21078;-54
2021/04/17 07:20:02;;;;;;;7.92;3.10;;;;;;;9.40;52.60;96739.59;1863500;76;21034;-52
2021/04/17 07:22:36;;;;;;;3.50;3.12;;;;;;;9.52;52.43;96749.66;1843837;76;21358;-53
2021/04/17 07:25:11;;;;;;;4.78;3.30;;;;;;;9.69;52.25;96747.75;1860597;76;21200;-54
2021/04/17 07:27:54;;;;;;;6.75;3.08;;;;;;;9.80;51.80;96745.27;1851780;76;21150;-52
2021/04/17 07:30:27;;;;;;;4.97;3.40;;;;;;;9.94;51.27;96746.50;1854281;76;21102;-52
2021/04/17 07:33:13;;;;;;;3.75;3.20;;;;;;;10.04;50.78;96749.32;1840514;76;21209;-52
2021/04/17 07:35:45;;;;;;;3.77;3.37;;;;;;;10.16;49.93;96739.08;1812819;76;22279;-54
2021/04/17 07:38:19;;;;;;;4.25;3.70;;;;;;;10.20;50.07;96739.25;1843033;76;21514;-53
2021/04/17 07:41:12;;;;;;;5.70;3.70;;;;;;;10.32;49.69;96739.74;1854439;76;21095;-53
2021/04/17 07:43:58;;;;;;;5.58;3.90;;;;;;;10.44;49.43;96739.37;1849953;76;21070;-53
2021/04/17 07:46:41;;;;;;;4.37;3.98;;;;;;;10.64;48.91;96738.02;1851602;76;21567;-54
2021/04/17 07:49:18;;;;;;;6.47;4.55;;;;;;;10.61;48.53;96734.36;1840066;76;21346;-52
2021/04/17 07:52:10;;;;;;;4.10;3.70;;;;;;;10.63;48.78;96736.38;1846527;76;21134;-53
2021/04/17 07:55:03;;;;;;;4.30;3.67;;;;;;;10.77;48.82;96731.52;1849529;76;21162;-52
2021/04/17 07:57:48;;;;;;;4.50;3.80;;;;;;;11.03;48.66;96731.83;1853428;76;21146;-52
2021/04/17 08:00:20;;;;;;;5.92;4.30;;;;;;;11.34;48.02;96732.27;1849602;75;21103;-54
2021/04/17 08:02:52;;;;;;;6.00;4.15;;;;;;;11.56;47.84;96734.17;1844033;76;22159;-54
2021/04/17 08:05:23;;;;;;;5.53;4.33;;;;;;;11.79;46.81;96738.14;1850944;76;21058;-54
2021/04/17 08:07:51;;;;;;;7.55;4.90;;;;;;;11.95;46.09;96736.11;1855818;76;22472;-53
2021/04/17 08:10:20;;;;;;;5.80;4.60;;;;;;;12.09;45.32;96742.91;1847113;76;21039;-52
2021/04/17 08:12:49;;;;;;;4.85;4.37;;;;;;;12.19;45.59;96735.25;1864753;76;21547;-54
2021/04/17 08:15:21;;;;;;;6.05;4.65;;;;;;;12.30;45.70;96734.42;1852251;76;22152;-52
2021/04/17 08:17:50;;;;;;;4.45;4.05;;;;;;;12.34;44.90;96737.98;1833198;76;21100;-52
2021/04/17 08:20:18;;;;;;;6.85;4.60;;;;;;;12.34;44.53;96735.87;1842265;76;21063;-51
2021/04/17 08:22:51;;;;;;;6.80;4.85;;;;;;;12.33;44.52;96732.90;1841072;76;21603;-52
2021/04/17 08:25:21;;;;;;;7.35;5.05;;;;;;;12.24;44.45;96734.42;1842513;76;21047;-53
2021/04/17 08:27:52;;;;;;;6.25;4.97;;;;;;;12.06;43.92;96735.33;1857847;76;21364;-52
2021/04/17 08:30:26;;;;;;;13.03;5.10;;;;;;;11.91;44.31;96736.44;1847842;76;21194;-52
2021/04/17 08:32:54;;;;;;;6.08;4.72;;;;;;;11.96;44.43;96736.96;1801372;76;21175;-53
2021/04/17 08:35:24;;;;;;;;;;;;;;;12.07;44.02;96733.09;1849746;76;21126;-54
2021/04/17 08:38:03;;;;;;;6.50;4.70;;;;;;;12.11;43.90;96731.91;1837418;76;20213;-52
2021/04/17 08:40:47;;;;;;;16.00;4.40;;;;;;;12.19;43.42;96727.45;1842938;76;21630;-55
2021/04/17 08:43:22;;;;;;;9.33;4.58;;;;;;;12.26;42.91;96729.94;1848973;76;21095;-53
2021/04/17 08:46:08;;;;;;;9.70;5.20;;;;;;;12.38;42.81;96731.25;1846874;76;21120;-53
2021/04/17 08:48:49;;;;;;;6.70;5.20;;;;;;;12.52;42.53;96729.27;1855123;76;21161;-54
2021/04/17 08:51:26;;;;;;;8.13;4.80;;;;;;;12.67;42.24;96728.56;1842181;76;21067;-52
2021/04/17 08:54:06;;;;;;;7.03;5.45;;;;;;;12.79;42.28;96719.45;1843174;76;21419;-52
2021/04/17 08:57:01;;;;;;;6.58;5.12;;;;;;;12.92;42.05;96716.25;1851353;76;21166;-53
2021/04/17 08:59:34;;;;;;;6.70;4.70;;;;;;;13.01;41.74;96716.84;1858510;76;21055;-53
2021/04/17 09:02:17;;;;;;;8.85;5.03;;;;;;;13.04;41.75;96723.12;1841634;76;21145;-55
2021/04/17 09:05:06;;;;;;;4.65;4.25;;;;;;;13.04;41.06;96721.81;1859999;75;21134;-54
2021/04/17 09:07:39;;;;;;;4.90;4.47;;;;;;;12.83;41.23;96723.49;1852010;75;21120;-52
2021/04/17 09:10:31;;;;;;;4.50;4.10;;;;;;;12.70;41.96;96721.82;1811420;78;21063;-53
2021/04/17 09:13:19;;;;;;;4.97;4.40;;;;;;;12.60;42.43;96722.18;1847251;76;21055;-53
2021/04/17 09:15:57;;;;;;;4.37;3.92;;;;;;;12.59;42.67;96728.32;1836022;76;21126;-52
2021/04/17 09:18:38;;;;;;;6.50;3.98;;;;;;;12.62;42.75;96727.27;1849116;76;21106;-54
2021/04/17 09:21:24;;;;;;;4.78;4.20;;;;;;;12.68;42.83;96726.77;1838331;76;21359;-54
2021/04/17 09:23:55;;;;;;;4.85;4.25;;;;;;;12.77;42.87;96721.35;1842172;76;21186;-53
2021/04/17 09:26:34;;;;;;;5.55;4.67;;;;;;;12.78;42.93;96713.88;1835280;76;21567;-54
2021/04/17 09:29:19;;;;;;;5.83;5.12;;;;;;;12.84;42.72;96716.02;1848029;76;26928;-52
2021/04/17 09:31:50;;;;;;;8.68;4.83;;;;;;;12.95;42.76;96712.11;1845131;76;21098;-52
2021/04/17 09:34:19;;;;;;;5.30;4.30;;;;;;;13.06;42.37;96710.80;1855388;76;21338;-53
2021/04/17 09:36:50;;;;;;;5.40;4.90;;;;;;;13.17;42.03;96708.63;1845460;76;21603;-52
2021/04/17 09:39:30;;;;;;;7.60;5.50;;;;;;;13.25;41.70;96706.23;1839850;76;21059;-52
2021/04/17 09:42:04;;;;;;;6.10;5.00;;;;;;;13.34;41.70;96707.79;1850037;76;21461;-58
2021/04/17 09:44:45;;;;;;;9.68;5.90;;;;;;;13.39;41.30;96709.09;1844356;75;21111;-53
2021/04/17 09:47:16;;;;;;;7.37;5.78;;;;;;;13.36;41.75;96710.64;1839318;76;21360;-52
2021/04/17 09:49:47;;;;;;;7.15;5.80;;;;;;;13.38;41.54;96705.30;1856268;76;21137;-53
2021/04/17 09:52:20;;;;;;;5.72;4.83;;;;;;;13.43;41.31;96713.09;1848844;76;21070;-52
2021/04/17 09:55:04;;;;;;;5.55;5.00;;;;;;;13.45;41.16;96706.46;1822689;76;21079;-52
2021/04/17 09:57:31;;;;;;;7.20;5.62;;;;;;;13.52;40.88;96706.34;1835992;76;21186;-52
2021/04/17 10:00:02;;;;;;;4.33;3.92;;;;;;;13.57;40.69;96708.58;1840097;76;22142;-52
2021/04/17 10:02:47;;;;;;;7.30;4.62;;;;;;;13.62;40.46;96709.03;1850317;75;21157;-53
2021/04/17 10:05:31;;;;;;;6.47;4.47;;;;;;;13.64;40.30;96707.13;1840245;76;21095;-53
2021/04/17 10:07:59;;;;;;;4.80;4.28;;;;;;;13.82;39.76;96710.50;1842115;76;21095;-53
2021/04/17 10:10:36;;;;;;;;;;;;;;;14.02;38.97;96703.15;1801364;76;21500;-52
2021/04/17 10:13:05;;;;;;;8.48;4.17;;;;;;;14.20;39.25;96703.41;1855653;76;21245;-53
2021/04/17 10:15:34;;;;;;;8.85;4.75;;;;;;;14.36;39.29;96708.17;1841286;75;21610;-53
2021/04/17 10:18:14;;;;;;;4.62;4.22;;;;;;;14.67;38.95;96706.89;1838468;76;21119;-55
2021/04/17 10:20:44;;;;;;;5.22;4.72;;;;;;;15.12;38.33;96703.09;1841400;76;21124;-54
2021/04/17 10:23:12;;;;;;;5.97;4.35;;;;;;;15.70;38.11;96701.02;1841276;76;21130;-53
2021/04/17 10:25:46;;;;;;;4.92;4.40;;;;;;;16.31;36.79;96707.74;1811516;76;21140;-52
2021/04/17 10:28:25;;;;;;;5.28;4.78;;;;;;;16.55;35.79;96700.73;1801654;78;21134;-52
2021/04/17 10:30:58;;;;;;;6.25;4.37;;;;;;;16.65;35.77;96702.82;1823872;76;21138;-53
2021/04/17 10:33:28;;;;;;;5.53;4.65;;;;;;;16.55;35.19;96705.97;1854239;76;21082;-55
2021/04/17 10:35:58;;;;;;;4.92;4.42;;;;;;;16.38;35.53;96706.20;1847863;75;21576;-54
2021/04/17 10:38:33;;;;;;;4.70;4.25;;;;;;;16.43;35.37;96707.94;1839161;76;21172;-55
2021/04/17 10:41:25;;;;;;;4.90;4.47;;;;;;;16.46;35.51;96707.63;1810319;76;21142;-53
2021/04/17 10:44:13;;;;;;;5.05;4.53;;;;;;;16.44;35.25;96703.52;1838453;76;21176;-53
2021/04/17 10:46:48;;;;;;;4.90;4.42;;;;;;;16.10;35.47;96700.06;1836624;76;21559;-52
2021/04/17 10:49:38;;;;;;;7.25;3.90;;;;;;;15.71;36.36;96701.37;1843080;76;21032;-55
2021/04/17 10:52:29;;;;;;;4.80;4.30;;;;;;;15.38;36.61;96696.39;1826808;76;21469;-53
2021/04/17 10:54:57;;;;;;;6.22;4.42;;;;;;;14.93;37.74;96703.36;1840039;75;21051;-52
2021/04/17 10:57:25;;;;;;;5.62;4.47;;;;;;;14.46;38.76;96701.22;1838303;76;21111;-52
2021/04/17 11:00:01;;;;;;;;;;;;;;;14.11;39.29;96702.40;1834609;76;21122;-51
2021/04/17 11:02:31;;;;;;;6.45;4.47;;;;;;;13.77;40.10;96712.17;1843288;76;20216;-52
2021/04/17 11:05:00;;;;;;;6.17;4.53;;;;;;;13.46;40.62;96707.31;1850621;76;21352;-51
2021/04/17 11:07:35;;;;;;;4.80;4.25;;;;;;;13.24;41.08;96715.52;1841161;76;21068;-52
2021/04/17 11:10:08;;;;;;;4.67;4.15;;;;;;;13.00;41.23;96712.56;1852042;76;21106;-53
2021/04/17 11:12:37;;;;;;;5.60;4.25;;;;;;;12.80;41.83;96712.01;1854738;76;21606;-54
2021/04/17 11:15:23;;;;;;;5.55;4.28;;;;;;;12.66;42.09;96719.56;1843848;76;21468;-52
2021/04/17 11:18:19;;;;;;;5.80;5.15;;;;;;;12.54;42.23;96715.31;1831433;76;21350;-52
2021/04/17 11:20:59;;;;;;;5.08;4.58;;;;;;;12.42;42.81;96719.20;1842410;76;21921;-53
2021/04/17 11:23:52;;;;;;;6.87;4.40;;;;;;;12.37;43.39;96720.48;1822897;76;21022;-52
2021/04/17 11:26:23;;;;;;;4.60;4.20;;;;;;;12.29;43.81;96723.20;1834388;76;21182;-54
2021/04/17 11:28:57;;;;;;;5.45;4.37;;;;;;;12.17;43.92;96724.14;1818621;76;21577;-53
2021/04/17 11:31:28;;;;;;;6.37;4.75;;;;;;;12.07;44.06;96725.30;1844820;76;21158;-54
2021/04/17 11:33:59;;;;;;;5.97;4.37;;;;;;;11.93;44.06;96725.48;1831225;76;21061;-51
2021/04/17 11:36:30;;;;;;;5.47;4.80;;;;;;;11.85;44.45;96722.10;1825625;76;21186;-54
2021/04/17 11:38:58;;;;;;;5.08;4.58;;;;;;;11.87;44.64;96723.30;1828563;76;21072;-52
2021/04/17 11:41:26;;;;;;;5.50;4.53;;;;;;;11.85;44.48;96719.50;1835751;76;21748;-54
2021/04/17 11:46:17;;;;;;;5.58;4.67;;;;;;;11.91;44.91;96722.14;1845715;75;28104;-53
2021/04/17 11:48:50;;;;;;;5.58;4.83;;;;;;;11.78;44.80;96722.20;1813113;78;21162;-53
2021/04/17 11:51:17;;;;;;;5.80;4.50;;;;;;;11.74;45.11;96723.36;1827529;78;22324;-53
2021/04/17 11:53:46;;;;;;;4.45;3.87;;;;;;;11.75;45.30;96726.33;1827277;78;21190;-54
2021/04/17 11:56:16;;;;;;;4.50;4.10;;;;;;;11.75;45.33;96720.65;1823421;78;21185;-53
2021/04/17 11:58:47;;;;;;;6.20;4.35;;;;;;;11.77;45.23;96727.86;1818743;78;21119;-52
2021/04/17 12:01:19;;;;;;;5.50;4.37;;;;;;;11.78;45.16;96726.11;1838459;78;21024;-52
2021/04/17 12:03:48;;;;;;;7.28;4.97;;;;;;;11.76;45.35;96722.80;1818184;76;21359;-51
2021/04/17 12:06:16;;;;;;;4.85;4.45;;;;;;;11.70;45.16;96720.16;1821745;78;21473;-52